createdAt,value
2023-04-10T00:00:51.097Z,9.34
2023-04-10T00:01:51.142Z,9.42
2023-04-10T00:02:51.273Z,9.35
2023-04-10T00:03:51.240Z,9.39
2023-04-10T00:04:51.162Z,9.40
2023-04-10T00:05:51.049Z,9.34
2023-04-10T00:06:51.029Z,9.43
2023-04-10T00:07:51.023Z,9.32
2023-04-10T00:08:51.020Z,9.39
2023-04-10T00:09:51.006Z,9.40
2023-04-10T00:10:50.985Z,9.45
2023-04-10T00:11:50.972Z,9.32
2023-04-10T00:12:50.967Z,9.46
2023-04-10T00:13:51.073Z,9.39
2023-04-10T00:14:50.949Z,9.40
2023-04-10T00:15:50.964Z,9.39
2023-04-10T00:16:50.976Z,9.38
2023-04-10T00:17:50.964Z,9.32
2023-04-10T00:18:50.914Z,9.35
2023-04-10T00:19:50.887Z,9.28
2023-04-10T00:20:50.912Z,9.28
2023-04-10T00:21:50.866Z,9.24
2023-04-10T00:22:50.897Z,9.30
2023-04-10T00:23:50.877Z,9.25
2023-04-10T00:24:50.831Z,9.28
2023-04-10T00:25:50.821Z,9.20
2023-04-10T00:26:50.821Z,9.21
2023-04-10T00:27:50.803Z,9.20
2023-04-10T00:28:50.820Z,9.09
2023-04-10T00:29:50.790Z,8.97
2023-04-10T00:30:50.767Z,8.79
2023-04-10T00:31:50.814Z,8.87
2023-04-10T00:32:50.783Z,8.79
2023-04-10T00:33:50.793Z,8.75
2023-04-10T00:34:50.723Z,8.72
2023-04-10T00:35:50.738Z,8.72
2023-04-10T00:36:50.700Z,8.57
2023-04-10T00:37:50.692Z,8.51
2023-04-10T00:38:50.707Z,8.57
2023-04-10T00:39:50.678Z,8.54
2023-04-10T00:40:50.671Z,8.53
2023-04-10T00:41:50.649Z,8.60
2023-04-10T00:42:50.640Z,8.47
2023-04-10T00:43:50.657Z,8.45
2023-04-10T00:44:50.631Z,8.48
2023-04-10T00:45:50.948Z,8.40
2023-04-10T00:46:50.604Z,8.35
2023-04-10T00:47:50.637Z,8.36
2023-04-10T00:48:50.587Z,8.40
2023-04-10T00:49:50.570Z,8.40
2023-04-10T00:50:50.563Z,8.39
2023-04-10T00:51:50.540Z,8.36
2023-04-10T00:52:50.531Z,8.35
2023-04-10T00:53:50.575Z,8.25
2023-04-10T00:54:50.509Z,8.36
2023-04-10T00:55:50.508Z,8.32
2023-04-10T00:56:50.486Z,8.32
2023-04-10T00:57:50.480Z,8.29
2023-04-10T00:58:50.477Z,8.17
2023-04-10T00:59:50.455Z,8.26
2023-04-10T01:00:50.441Z,8.30
2023-04-10T01:01:50.646Z,8.26
2023-04-10T01:02:50.623Z,8.21
2023-04-10T01:03:50.523Z,8.22
2023-04-10T01:04:50.397Z,8.18
2023-04-10T01:05:50.399Z,8.22
2023-04-10T01:06:50.376Z,8.18
2023-04-10T01:07:50.376Z,8.11
2023-04-10T01:08:50.380Z,8.25
2023-04-10T01:09:50.371Z,8.18
2023-04-10T01:10:50.338Z,8.21
2023-04-10T01:11:50.324Z,8.17
2023-04-10T01:12:50.310Z,8.14
2023-04-10T01:13:50.343Z,8.18
2023-04-10T01:14:50.288Z,8.15
2023-04-10T01:15:50.278Z,8.22
2023-04-10T01:16:50.277Z,8.17
2023-04-10T01:17:50.337Z,8.15
2023-04-10T01:18:50.244Z,8.15
2023-04-10T01:19:50.256Z,8.12
2023-04-10T01:20:50.226Z,8.14
2023-04-10T01:21:50.215Z,8.15
2023-04-10T01:22:50.239Z,8.08
2023-04-10T01:23:50.200Z,8.04
2023-04-10T01:24:50.184Z,8.04
2023-04-10T01:25:50.170Z,7.97
2023-04-10T01:26:50.158Z,7.90
2023-04-10T01:27:50.204Z,7.94
2023-04-10T01:28:50.137Z,7.92
2023-04-10T01:29:50.132Z,8.04
2023-04-10T01:30:50.156Z,7.97
2023-04-10T01:31:50.106Z,7.96
2023-04-10T01:32:50.183Z,7.97
2023-04-10T01:33:50.104Z,7.94
2023-04-10T01:34:50.073Z,8.03
2023-04-10T01:35:50.084Z,8.08
2023-04-10T01:36:50.076Z,8.10
2023-04-10T01:37:50.076Z,8.18
2023-04-10T01:38:50.043Z,8.02
2023-04-10T01:39:50.021Z,8.04
2023-04-10T01:40:50.033Z,8.11
2023-04-10T01:41:50.005Z,8.10
2023-04-10T01:42:50.002Z,8.12
2023-04-10T01:43:49.995Z,8.21
2023-04-10T01:44:50.000Z,8.12
2023-04-10T01:45:49.962Z,8.18
2023-04-10T01:46:50.130Z,8.22
2023-04-10T01:47:50.081Z,8.26
2023-04-10T01:48:49.925Z,8.22
2023-04-10T01:49:49.921Z,8.18
2023-04-10T01:50:49.909Z,8.18
2023-04-10T01:51:49.919Z,8.20
2023-04-10T01:52:49.910Z,8.21
2023-04-10T01:53:49.876Z,8.22
2023-04-10T01:54:49.865Z,8.25
2023-04-10T01:55:49.855Z,8.17
2023-04-10T01:56:49.881Z,8.04
2023-04-10T01:57:49.846Z,8.10
2023-04-10T01:58:49.849Z,8.00
2023-04-10T01:59:49.811Z,7.97
2023-04-10T02:00:49.801Z,8.08
2023-04-10T02:01:49.957Z,8.07
2023-04-10T02:02:49.981Z,8.08
2023-04-10T02:03:49.824Z,8.07
2023-04-10T02:04:49.777Z,7.96
2023-04-10T02:05:49.748Z,7.90
2023-04-10T02:06:49.757Z,7.92
2023-04-10T02:07:49.797Z,7.90
2023-04-10T02:08:49.741Z,7.94
2023-04-10T02:09:49.704Z,7.85
2023-04-10T02:10:49.695Z,7.78
2023-04-10T02:11:49.754Z,7.78
2023-04-10T02:12:49.789Z,7.79
2023-04-10T02:13:49.661Z,7.75
2023-04-10T02:14:49.651Z,7.75
2023-04-10T02:15:49.652Z,7.75
2023-04-10T02:16:49.628Z,7.74
2023-04-10T02:17:49.778Z,7.74
2023-04-10T02:18:49.615Z,7.81
2023-04-10T02:19:49.614Z,7.74
2023-04-10T02:20:49.593Z,7.81
2023-04-10T02:21:49.590Z,7.77
2023-04-10T02:22:49.604Z,7.87
2023-04-10T02:23:49.586Z,7.89
2023-04-10T02:24:49.551Z,7.82
2023-04-10T02:25:49.535Z,7.85
2023-04-10T02:26:49.539Z,7.89
2023-04-10T02:27:49.536Z,7.85
2023-04-10T02:28:49.499Z,7.84
2023-04-10T02:29:49.496Z,7.84
2023-04-10T02:30:49.499Z,7.77
2023-04-10T02:31:49.474Z,7.74
2023-04-10T02:32:49.553Z,7.81
2023-04-10T02:33:49.447Z,7.74
2023-04-10T02:34:49.437Z,7.77
2023-04-10T02:35:49.430Z,7.69
2023-04-10T02:36:49.420Z,7.75
2023-04-10T02:37:49.453Z,7.74
2023-04-10T02:38:49.394Z,7.74
2023-04-10T02:39:49.405Z,7.77
2023-04-10T02:40:49.414Z,7.69
2023-04-10T02:41:49.364Z,7.74
2023-04-10T02:42:49.363Z,7.74
2023-04-10T02:43:49.350Z,7.69
2023-04-10T02:44:49.339Z,7.84
2023-04-10T02:45:49.321Z,7.72
2023-04-10T02:46:49.392Z,7.78
2023-04-10T02:47:49.337Z,7.74
2023-04-10T02:48:49.289Z,7.77
2023-04-10T02:49:49.284Z,7.69
2023-04-10T02:50:49.293Z,7.67
2023-04-10T02:51:49.299Z,7.71
2023-04-10T02:52:49.256Z,7.56
2023-04-10T02:53:49.238Z,7.60
2023-04-10T02:54:49.244Z,7.53
2023-04-10T02:55:49.263Z,7.50
2023-04-10T02:56:49.217Z,7.47
2023-04-10T02:57:49.205Z,7.42
2023-04-10T02:58:49.179Z,7.42
2023-04-10T02:59:49.172Z,7.37
2023-04-10T03:00:49.179Z,7.38
2023-04-10T03:01:49.240Z,7.37
2023-04-10T03:02:49.441Z,7.31
2023-04-10T03:03:49.180Z,7.32
2023-04-10T03:04:49.162Z,7.34
2023-04-10T03:05:49.112Z,7.32
2023-04-10T03:06:49.109Z,7.29
2023-04-10T03:07:49.101Z,7.37
2023-04-10T03:08:49.106Z,7.31
2023-04-10T03:09:49.063Z,7.31
2023-04-10T03:10:49.050Z,7.32
2023-04-10T03:11:49.069Z,7.27
2023-04-10T03:12:49.048Z,7.22
2023-04-10T03:13:49.024Z,7.24
2023-04-10T03:14:49.015Z,7.09
2023-04-10T03:15:49.026Z,7.09
2023-04-10T03:16:48.986Z,7.04
2023-04-10T03:17:49.026Z,7.17
2023-04-10T03:18:48.977Z,7.13
2023-04-10T03:19:48.964Z,7.08
2023-04-10T03:20:48.952Z,7.05
2023-04-10T03:21:48.960Z,7.07
2023-04-10T03:22:48.923Z,7.08
2023-04-10T03:23:48.916Z,7.01
2023-04-10T03:24:48.912Z,6.99
2023-04-10T03:25:48.893Z,7.01
2023-04-10T03:26:48.920Z,7.02
2023-04-10T03:27:48.916Z,6.97
2023-04-10T03:28:48.880Z,6.98
2023-04-10T03:29:48.860Z,6.94
2023-04-10T03:30:48.851Z,6.97
2023-04-10T03:31:48.908Z,6.99
2023-04-10T03:32:48.819Z,6.94
2023-04-10T03:33:48.873Z,6.87
2023-04-10T03:34:48.811Z,6.91
2023-04-10T03:35:48.823Z,6.97
2023-04-10T03:36:48.777Z,6.87
2023-04-10T03:37:48.792Z,6.89
2023-04-10T03:38:48.781Z,6.80
2023-04-10T03:39:48.743Z,6.87
2023-04-10T03:40:48.735Z,6.86
2023-04-10T03:41:48.742Z,6.84
2023-04-10T03:42:48.709Z,6.90
2023-04-10T03:43:48.722Z,6.91
2023-04-10T03:44:48.697Z,6.87
2023-04-10T03:45:48.689Z,6.86
2023-04-10T03:46:48.726Z,6.90
2023-04-10T03:47:48.724Z,6.87
2023-04-10T03:48:48.646Z,6.90
2023-04-10T03:49:48.640Z,6.79
2023-04-10T03:50:48.639Z,6.86
2023-04-10T03:51:48.617Z,6.84
2023-04-10T03:52:48.602Z,6.84
2023-04-10T03:53:48.606Z,6.80
2023-04-10T03:54:48.583Z,6.81
2023-04-10T03:55:48.638Z,6.84
2023-04-10T03:56:48.565Z,6.84
2023-04-10T03:57:48.570Z,6.87
2023-04-10T03:58:48.555Z,6.89
2023-04-10T03:59:48.564Z,6.89
2023-04-10T04:00:48.532Z,6.77
2023-04-10T04:01:48.554Z,6.76
2023-04-10T04:02:48.717Z,6.77
2023-04-10T04:03:48.645Z,6.79
2023-04-10T04:04:48.623Z,6.71
2023-04-10T04:05:48.468Z,6.79
2023-04-10T04:06:48.463Z,6.81
2023-04-10T04:07:48.480Z,6.69
2023-04-10T04:08:48.449Z,6.61
2023-04-10T04:09:48.431Z,6.62
2023-04-10T04:10:48.415Z,6.56
2023-04-10T04:11:48.399Z,6.51
2023-04-10T04:12:48.389Z,6.41
2023-04-10T04:13:48.400Z,6.50
2023-04-10T04:14:48.366Z,6.47
2023-04-10T04:15:48.378Z,6.36
2023-04-10T04:16:48.426Z,6.51
2023-04-10T04:17:48.421Z,6.51
2023-04-10T04:18:48.342Z,6.58
2023-04-10T04:19:48.338Z,6.53
2023-04-10T04:20:48.304Z,6.63
2023-04-10T04:21:48.305Z,6.59
2023-04-10T04:22:48.284Z,6.62
2023-04-10T04:23:48.270Z,6.54
2023-04-10T04:24:48.316Z,6.61
2023-04-10T04:25:48.248Z,6.65
2023-04-10T04:26:48.248Z,6.71
2023-04-10T04:27:48.231Z,6.72
2023-04-10T04:28:48.250Z,6.77
2023-04-10T04:29:48.214Z,6.80
2023-04-10T04:30:48.197Z,6.79
2023-04-10T04:31:48.307Z,6.73
2023-04-10T04:32:48.251Z,6.83
2023-04-10T04:33:48.174Z,6.73
2023-04-10T04:34:48.174Z,6.80
2023-04-10T04:35:48.197Z,6.79
2023-04-10T04:36:48.133Z,6.76
2023-04-10T04:37:48.132Z,6.72
2023-04-10T04:38:48.114Z,6.79
2023-04-10T04:39:48.121Z,6.80
2023-04-10T04:40:48.104Z,6.79
2023-04-10T04:41:48.089Z,6.77
2023-04-10T04:42:48.074Z,6.80
2023-04-10T04:43:48.096Z,6.76
2023-04-10T04:44:48.051Z,6.77
2023-04-10T04:45:48.050Z,6.79
2023-04-10T04:46:48.027Z,6.71
2023-04-10T04:47:48.061Z,6.71
2023-04-10T04:48:48.029Z,6.79
2023-04-10T04:49:48.009Z,6.79
2023-04-10T04:50:47.983Z,6.79
2023-04-10T04:51:47.988Z,6.79
2023-04-10T04:52:47.970Z,6.84
2023-04-10T04:53:48.001Z,6.84
2023-04-10T04:54:47.943Z,6.84
2023-04-10T04:55:47.933Z,6.84
2023-04-10T04:56:47.950Z,6.80
2023-04-10T04:57:47.910Z,6.86
2023-04-10T04:58:47.916Z,6.77
2023-04-10T04:59:47.890Z,6.83
2023-04-10T05:00:47.879Z,6.84
2023-04-10T05:01:47.954Z,6.80
2023-04-10T05:02:47.996Z,6.77
2023-04-10T05:03:47.970Z,6.90
2023-04-10T05:04:47.835Z,6.97
2023-04-10T05:05:47.843Z,6.98
2023-04-10T05:06:47.818Z,7.09
2023-04-10T05:07:47.821Z,7.07
2023-04-10T05:08:47.806Z,7.12
2023-04-10T05:09:47.786Z,7.01
2023-04-10T05:10:47.768Z,6.80
2023-04-10T05:11:47.806Z,6.90
2023-04-10T05:12:47.751Z,6.87
2023-04-10T05:13:47.755Z,6.89
2023-04-10T05:14:47.730Z,7.05
2023-04-10T05:15:47.790Z,6.90
2023-04-10T05:16:47.712Z,6.84
2023-04-10T05:17:47.781Z,6.91
2023-04-10T05:18:47.706Z,7.05
2023-04-10T05:19:47.688Z,7.19
2023-04-10T05:20:47.661Z,7.34
2023-04-10T05:21:47.651Z,7.44
2023-04-10T05:22:47.644Z,7.69
2023-04-10T05:23:47.644Z,7.77
2023-04-10T05:24:47.641Z,7.92
2023-04-10T05:25:47.607Z,8.07
2023-04-10T05:26:47.596Z,8.25
2023-04-10T05:27:47.584Z,8.40
2023-04-10T05:28:47.598Z,8.44
2023-04-10T05:29:47.561Z,8.57
2023-04-10T05:30:47.587Z,8.65
2023-04-10T05:31:47.546Z,8.84
2023-04-10T05:32:47.569Z,8.94
2023-04-10T05:33:47.557Z,9.06
2023-04-10T05:34:47.509Z,9.16
2023-04-10T05:35:47.533Z,9.21
2023-04-10T05:36:47.486Z,9.32
2023-04-10T05:37:47.475Z,9.50
2023-04-10T05:38:47.488Z,9.61
2023-04-10T05:39:47.455Z,9.68
2023-04-10T05:40:47.450Z,9.89
2023-04-10T05:41:47.441Z,9.97
2023-04-10T05:42:47.434Z,10.17
2023-04-10T05:43:47.430Z,10.39
2023-04-10T05:44:47.402Z,10.40
2023-04-10T05:45:47.391Z,10.55
2023-04-10T05:46:47.409Z,10.62
2023-04-10T05:47:47.430Z,10.73
2023-04-10T05:48:47.436Z,10.65
2023-04-10T05:49:47.348Z,10.59
2023-04-10T05:50:47.380Z,10.55
2023-04-10T05:51:47.343Z,10.65
2023-04-10T05:52:47.317Z,10.77
2023-04-10T05:53:47.323Z,10.95
2023-04-10T05:54:47.303Z,10.98
2023-04-10T05:55:47.282Z,11.20
2023-04-10T05:56:47.274Z,11.41
2023-04-10T05:57:47.262Z,11.54
2023-04-10T05:58:47.334Z,11.78
2023-04-10T05:59:47.238Z,11.77
2023-04-10T06:00:47.231Z,12.11
2023-04-10T06:01:47.271Z,12.16
2023-04-10T06:02:47.361Z,12.20
2023-04-10T06:03:47.442Z,12.04
2023-04-10T06:04:47.240Z,12.02
2023-04-10T06:05:47.173Z,12.08
2023-04-10T06:06:47.164Z,12.12
2023-04-10T06:07:47.199Z,12.31
2023-04-10T06:08:47.159Z,12.52
2023-04-10T06:09:47.134Z,12.64
2023-04-10T06:10:47.130Z,12.85
2023-04-10T06:11:47.115Z,13.00
2023-04-10T06:12:47.097Z,13.24
2023-04-10T06:13:47.103Z,13.22
2023-04-10T06:14:47.077Z,13.36
2023-04-10T06:15:47.092Z,13.55
2023-04-10T06:16:47.058Z,13.69
2023-04-10T06:17:47.081Z,13.67
2023-04-10T06:18:47.051Z,13.71
2023-04-10T06:19:47.019Z,13.81
2023-04-10T06:20:47.021Z,13.61
2023-04-10T06:21:47.013Z,13.67
2023-04-10T06:22:46.986Z,13.77
2023-04-10T06:23:47.011Z,13.95
2023-04-10T06:24:47.046Z,14.09
2023-04-10T06:25:46.960Z,14.12
2023-04-10T06:26:46.945Z,14.34
2023-04-10T06:27:46.931Z,14.37
2023-04-10T06:28:46.945Z,14.53
2023-04-10T06:29:46.914Z,14.68
2023-04-10T06:30:46.906Z,14.84
2023-04-10T06:31:47.002Z,15.15
2023-04-10T06:32:46.960Z,14.93
2023-04-10T06:33:46.872Z,14.84
2023-04-10T06:34:46.877Z,14.78
2023-04-10T06:35:46.865Z,14.75
2023-04-10T06:36:46.841Z,14.72
2023-04-10T06:37:46.844Z,14.74
2023-04-10T06:38:46.817Z,14.78
2023-04-10T06:39:46.826Z,14.83
2023-04-10T06:40:46.805Z,14.84
2023-04-10T06:41:46.782Z,14.65
2023-04-10T06:42:46.786Z,14.54
2023-04-10T06:43:46.767Z,14.65
2023-04-10T06:44:46.753Z,14.64
2023-04-10T06:45:46.745Z,14.60
2023-04-10T06:46:46.804Z,14.81
2023-04-10T06:47:46.760Z,14.95
2023-04-10T06:48:46.743Z,15.02
2023-04-10T06:49:46.709Z,15.11
2023-04-10T06:50:46.695Z,15.20
2023-04-10T06:51:46.676Z,15.23
2023-04-10T06:52:46.701Z,15.30
2023-04-10T06:53:46.658Z,15.42
2023-04-10T06:54:46.651Z,15.61
2023-04-10T06:55:46.652Z,15.45
2023-04-10T06:56:46.632Z,15.64
2023-04-10T06:57:46.631Z,15.74
2023-04-10T06:58:46.606Z,15.94
2023-04-10T06:59:46.593Z,15.97
2023-04-10T07:00:46.621Z,16.22
2023-04-10T07:01:46.582Z,16.40
2023-04-10T07:02:46.621Z,16.44
2023-04-10T07:03:46.580Z,16.59
2023-04-10T07:04:46.741Z,16.85
2023-04-10T07:05:46.526Z,17.14
2023-04-10T07:06:46.516Z,17.40
2023-04-10T07:07:46.513Z,17.57
2023-04-10T07:08:46.518Z,17.66
2023-04-10T07:09:46.503Z,17.78
2023-04-10T07:10:46.480Z,17.84
2023-04-10T07:11:46.490Z,18.07
2023-04-10T07:12:46.472Z,18.27
2023-04-10T07:13:46.443Z,18.42
2023-04-10T07:14:46.431Z,18.24
2023-04-10T07:15:46.421Z,18.18
2023-04-10T07:16:46.626Z,18.12
2023-04-10T07:17:46.480Z,18.13
2023-04-10T07:18:47.506Z,18.12
2023-04-10T07:19:46.373Z,18.06
2023-04-10T07:20:46.367Z,18.15
2023-04-10T07:21:46.363Z,18.17
2023-04-10T07:22:46.421Z,18.22
2023-04-10T07:23:46.334Z,18.44
2023-04-10T07:24:46.332Z,18.50
2023-04-10T07:25:46.313Z,18.67
2023-04-10T07:26:46.316Z,18.79
2023-04-10T07:27:46.324Z,18.82
2023-04-10T07:28:46.276Z,18.92
2023-04-10T07:29:46.262Z,18.98
2023-04-10T07:30:46.304Z,18.95
2023-04-10T07:31:46.297Z,18.95
2023-04-10T07:32:46.363Z,19.20
2023-04-10T07:33:46.249Z,19.39
2023-04-10T07:34:46.209Z,19.57
2023-04-10T07:35:46.274Z,19.63
2023-04-10T07:36:46.248Z,19.75
2023-04-10T07:37:46.196Z,19.48
2023-04-10T07:38:46.174Z,19.42
2023-04-10T07:39:46.159Z,19.57
2023-04-10T07:40:46.154Z,19.54
2023-04-10T07:41:46.133Z,19.33
2023-04-10T07:42:46.146Z,19.18
2023-04-10T07:43:46.136Z,19.40
2023-04-10T07:44:46.120Z,19.55
2023-04-10T07:45:46.114Z,19.76
2023-04-10T07:46:46.085Z,19.79
2023-04-10T07:47:46.168Z,20.16
2023-04-10T07:48:46.084Z,20.09
2023-04-10T07:49:46.058Z,20.47
2023-04-10T07:50:46.064Z,20.50
2023-04-10T07:51:46.029Z,20.65
2023-04-10T07:52:46.090Z,20.61
2023-04-10T07:53:46.020Z,20.71
2023-04-10T07:54:45.998Z,20.98
2023-04-10T07:55:45.985Z,20.93
2023-04-10T07:56:45.992Z,21.20
2023-04-10T07:57:46.017Z,21.32
2023-04-10T07:58:45.955Z,21.20
2023-04-10T07:59:45.958Z,21.50
2023-04-10T08:00:45.934Z,21.72
2023-04-10T08:01:45.988Z,21.74
2023-04-10T08:02:46.073Z,21.63
2023-04-10T08:03:46.095Z,21.53
2023-04-10T08:04:46.007Z,21.67
2023-04-10T08:05:45.880Z,21.61
2023-04-10T08:06:45.867Z,21.99
2023-04-10T08:07:45.863Z,21.85
2023-04-10T08:08:45.867Z,21.78
2023-04-10T08:09:45.842Z,21.97
2023-04-10T08:10:45.842Z,22.10
2023-04-10T08:11:45.819Z,21.83
2023-04-10T08:12:45.809Z,22.01
2023-04-10T08:13:45.803Z,22.32
2023-04-10T08:14:45.790Z,21.99
2023-04-10T08:15:45.794Z,21.71
2023-04-10T08:16:45.871Z,21.75
2023-04-10T08:17:45.813Z,21.90
2023-04-10T08:18:45.747Z,22.17
2023-04-10T08:19:45.741Z,22.17
2023-04-10T08:20:45.719Z,22.22
2023-04-10T08:21:45.713Z,22.19
2023-04-10T08:22:52.776Z,22.13
2023-04-10T08:23:45.698Z,22.53
2023-04-10T08:24:45.682Z,22.38
2023-04-10T08:25:45.672Z,22.68
2023-04-10T08:26:45.686Z,22.71
2023-04-10T08:27:45.686Z,22.74
2023-04-10T08:28:45.642Z,22.52
2023-04-10T08:29:45.628Z,22.71
2023-04-10T08:30:45.641Z,22.69
2023-04-10T08:31:45.649Z,22.78
2023-04-10T08:32:45.667Z,22.87
2023-04-10T08:33:45.635Z,23.05
2023-04-10T08:34:45.611Z,23.15
2023-04-10T08:35:45.626Z,23.14
2023-04-10T08:36:45.611Z,23.23
2023-04-10T08:37:49.653Z,23.29
2023-04-10T08:38:46.597Z,23.23
2023-04-10T08:39:45.537Z,23.50
2023-04-10T08:40:45.517Z,23.46
2023-04-10T08:41:45.502Z,23.80
2023-04-10T08:42:45.500Z,23.82
2023-04-10T08:43:45.668Z,23.86
2023-04-10T08:44:45.480Z,23.20
2023-04-10T08:45:45.488Z,23.50
2023-04-10T08:46:45.483Z,23.23
2023-04-10T08:47:45.514Z,23.29
2023-04-10T08:48:45.486Z,23.22
2023-04-10T08:49:45.428Z,23.42
2023-04-10T08:50:45.410Z,23.27
2023-04-10T08:51:47.224Z,23.05
2023-04-10T08:52:45.404Z,22.83
2023-04-10T08:53:45.402Z,22.84
2023-04-10T08:54:45.373Z,22.92
2023-04-10T08:55:45.373Z,23.04
2023-04-10T08:56:45.375Z,23.07
2023-04-10T08:57:50.788Z,22.67
2023-04-10T08:58:46.381Z,22.69
2023-04-10T08:59:45.319Z,22.74
2023-04-10T09:00:45.310Z,22.78
2023-04-10T09:01:45.389Z,22.78
2023-04-10T09:02:45.510Z,22.86
2023-04-10T09:03:45.395Z,23.11
2023-04-10T09:04:45.390Z,23.09
2023-04-10T09:05:45.282Z,23.02
2023-04-10T09:06:45.250Z,23.17
2023-04-10T09:07:45.236Z,23.27
2023-04-10T09:08:45.269Z,23.22
2023-04-10T09:09:45.214Z,22.90
2023-04-10T09:10:45.207Z,22.71
2023-04-10T09:11:45.192Z,22.46
2023-04-10T09:12:45.191Z,22.41
2023-04-10T09:13:45.239Z,22.39
2023-04-10T09:14:45.169Z,22.32
2023-04-10T09:15:45.168Z,22.22
2023-04-10T09:16:45.145Z,22.10
2023-04-10T09:17:45.164Z,22.34
2023-04-10T09:18:45.145Z,22.67
2023-04-10T09:19:45.127Z,22.83
2023-04-10T09:20:45.100Z,22.84
2023-04-10T09:21:45.088Z,23.05
2023-04-10T09:22:45.099Z,23.15
2023-04-10T09:23:45.077Z,23.38
2023-04-10T09:24:45.057Z,23.50
2023-04-10T09:25:45.063Z,23.45
2023-04-10T09:26:45.037Z,23.26
2023-04-10T09:27:45.086Z,23.24
2023-04-10T09:28:45.015Z,23.32
2023-04-10T09:29:45.011Z,23.29
2023-04-10T09:30:44.994Z,23.43
2023-04-10T09:31:45.070Z,23.55
2023-04-10T09:32:45.030Z,23.53
2023-04-10T09:33:44.967Z,23.24
2023-04-10T09:34:44.968Z,22.99
2023-04-10T09:35:44.961Z,23.12
2023-04-10T09:36:44.945Z,23.23
2023-04-10T09:37:45.001Z,23.42
2023-04-10T09:38:44.913Z,23.43
2023-04-10T09:39:44.919Z,23.08
2023-04-10T09:40:44.902Z,23.02
2023-04-10T09:41:44.881Z,23.24
2023-04-10T09:42:44.895Z,23.47
2023-04-10T09:43:44.866Z,23.61
2023-04-10T09:44:44.850Z,23.47
2023-04-10T09:45:44.837Z,23.55
2023-04-10T09:46:44.852Z,23.79
2023-04-10T09:47:44.852Z,23.94
2023-04-10T09:48:44.809Z,24.04
2023-04-10T09:49:44.809Z,23.76
2023-04-10T09:50:44.852Z,23.86
2023-04-10T09:51:44.840Z,23.62
2023-04-10T09:52:44.770Z,23.20
2023-04-10T09:53:44.782Z,22.47
2023-04-10T09:54:44.813Z,22.29
2023-04-10T09:55:44.820Z,22.22
2023-04-10T09:56:44.750Z,22.50
2023-04-10T09:57:44.718Z,23.07
2023-04-10T09:58:44.712Z,23.46
2023-04-10T09:59:44.703Z,23.52
2023-04-10T10:00:44.691Z,23.67
2023-04-10T10:01:44.790Z,23.80
2023-04-10T10:02:45.070Z,23.80
2023-04-10T10:03:44.698Z,23.72
2023-04-10T10:04:44.715Z,23.79
2023-04-10T10:05:44.639Z,23.57
2023-04-10T10:06:44.647Z,23.40
2023-04-10T10:07:44.645Z,23.45
2023-04-10T10:08:44.605Z,23.47
2023-04-10T10:09:44.610Z,23.50
2023-04-10T10:10:44.584Z,23.47
2023-04-10T10:11:44.609Z,23.43
2023-04-10T10:12:44.573Z,23.43
2023-04-10T10:13:44.594Z,23.57
2023-04-10T10:14:44.542Z,23.64
2023-04-10T10:15:44.540Z,23.89
2023-04-10T10:16:44.728Z,23.86
2023-04-10T10:17:44.549Z,23.70
2023-04-10T10:18:44.505Z,23.64
2023-04-10T10:19:44.544Z,23.60
2023-04-10T10:20:44.490Z,23.62
2023-04-10T10:21:44.478Z,23.55
2023-04-10T10:22:44.502Z,23.35
2023-04-10T10:23:44.480Z,23.60
2023-04-10T10:24:44.451Z,23.80
2023-04-10T10:25:44.516Z,23.64
2023-04-10T10:26:44.426Z,23.85
2023-04-10T10:27:44.421Z,23.86
2023-04-10T10:28:44.430Z,23.15
2023-04-10T10:29:44.398Z,22.77
2023-04-10T10:30:44.394Z,22.17
2023-04-10T10:31:44.397Z,21.44
2023-04-10T10:32:44.391Z,20.39
2023-04-10T10:33:44.398Z,19.68
2023-04-10T10:34:44.341Z,19.05
2023-04-10T10:35:44.336Z,18.74
2023-04-10T10:36:44.383Z,18.54
2023-04-10T10:37:44.323Z,18.36
2023-04-10T10:38:44.318Z,18.24
2023-04-10T10:39:44.315Z,18.28
2023-04-10T10:40:44.288Z,18.22
2023-04-10T10:41:44.271Z,18.29
2023-04-10T10:42:44.282Z,18.22
2023-04-10T10:43:44.278Z,18.21
2023-04-10T10:44:44.248Z,18.15
2023-04-10T10:45:44.254Z,18.21
2023-04-10T10:46:44.223Z,18.09
2023-04-10T10:47:44.228Z,17.88
2023-04-10T10:48:44.249Z,17.73
2023-04-10T10:49:44.200Z,17.69
2023-04-10T10:50:44.277Z,17.57
2023-04-10T10:51:44.169Z,17.47
2023-04-10T10:52:44.152Z,17.29
2023-04-10T10:53:44.155Z,17.26
2023-04-10T10:54:57.126Z,17.07
2023-04-10T10:55:45.142Z,17.14
2023-04-10T10:56:44.112Z,17.10
2023-04-10T10:57:44.132Z,17.18
2023-04-10T10:58:44.090Z,17.13
2023-04-10T10:59:44.088Z,17.28
2023-04-10T11:00:44.095Z,17.32
2023-04-10T11:01:44.219Z,17.30
2023-04-10T11:02:44.218Z,17.26
2023-04-10T11:03:44.161Z,17.06
2023-04-10T11:04:44.023Z,17.08
2023-04-10T11:05:44.051Z,16.96
2023-04-10T11:06:44.793Z,17.03
2023-04-10T11:07:44.016Z,16.96
2023-04-10T11:08:43.992Z,17.00
2023-04-10T11:09:43.980Z,17.06
2023-04-10T11:10:44.009Z,16.98
2023-04-10T11:11:44.004Z,17.07
2023-04-10T11:12:43.939Z,17.14
2023-04-10T11:13:43.953Z,17.22
2023-04-10T11:14:43.942Z,17.28
2023-04-10T11:15:43.913Z,17.26
2023-04-10T11:16:44.107Z,17.35
2023-04-10T11:17:43.942Z,17.46
2023-04-10T11:18:43.910Z,17.38
2023-04-10T11:19:43.870Z,17.40
2023-04-10T11:20:43.854Z,17.43
2023-04-10T11:21:43.845Z,17.46
2023-04-10T11:22:43.830Z,17.36
2023-04-10T11:23:43.861Z,17.29
2023-04-10T11:24:43.820Z,17.30
2023-04-10T11:25:43.801Z,17.25
2023-04-10T11:26:43.788Z,17.13
2023-04-10T11:27:43.801Z,16.75
2023-04-10T11:28:43.812Z,16.68
2023-04-10T11:29:43.765Z,16.53
2023-04-10T11:30:43.741Z,16.60
2023-04-10T11:31:43.762Z,16.67
2023-04-10T11:32:43.749Z,16.75
2023-04-10T11:33:43.721Z,16.85
2023-04-10T11:34:43.695Z,16.73
2023-04-10T11:35:43.744Z,16.65
2023-04-10T11:36:43.696Z,16.55
2023-04-10T11:37:43.664Z,16.60
2023-04-10T11:38:43.675Z,16.50
2023-04-10T11:39:43.645Z,16.55
2023-04-10T11:40:43.630Z,16.56
2023-04-10T11:41:43.622Z,16.67
2023-04-10T11:42:43.620Z,16.58
2023-04-10T11:43:43.637Z,16.42
2023-04-10T11:44:43.614Z,16.38
2023-04-10T11:45:43.621Z,16.22
2023-04-10T11:46:43.577Z,16.23
2023-04-10T11:47:43.624Z,16.23
2023-04-10T11:48:43.545Z,16.31
2023-04-10T11:49:43.537Z,16.35
2023-04-10T11:50:43.524Z,16.41
2023-04-10T11:51:43.510Z,16.44
2023-04-10T11:52:43.566Z,16.42
2023-04-10T11:53:43.496Z,16.41
2023-04-10T11:54:43.494Z,16.34
2023-04-10T11:55:43.482Z,16.35
2023-04-10T11:56:43.468Z,16.41
2023-04-10T11:57:43.500Z,16.49
2023-04-10T11:58:43.432Z,16.45
2023-04-10T11:59:43.524Z,16.45
2023-04-10T12:00:43.418Z,16.40
2023-04-10T12:01:43.782Z,16.33
2023-04-10T12:02:43.541Z,16.34
2023-04-10T12:03:43.551Z,16.40
2023-04-10T12:04:43.442Z,16.35
2023-04-10T12:05:43.389Z,16.38
2023-04-10T12:06:43.374Z,16.44
2023-04-10T12:07:43.342Z,16.45
2023-04-10T12:08:43.340Z,16.45
2023-04-10T12:09:43.320Z,16.42
2023-04-10T12:10:43.318Z,16.41
2023-04-10T12:11:43.325Z,16.55
2023-04-10T12:12:43.285Z,16.50
2023-04-10T12:13:43.271Z,16.60
2023-04-10T12:14:43.333Z,16.73
2023-04-10T12:15:43.297Z,16.65
2023-04-10T12:16:43.252Z,16.52
2023-04-10T12:17:43.274Z,16.55
2023-04-10T12:18:43.221Z,16.60
2023-04-10T12:19:43.204Z,16.56
2023-04-10T12:20:43.196Z,16.52
2023-04-10T12:21:43.211Z,16.67
2023-04-10T12:22:43.174Z,16.68
2023-04-10T12:23:43.163Z,16.70
2023-04-10T12:24:43.150Z,16.73
2023-04-10T12:25:43.143Z,16.83
2023-04-10T12:26:43.142Z,16.85
2023-04-10T12:27:43.119Z,16.93
2023-04-10T12:28:43.106Z,16.98
2023-04-10T12:29:43.101Z,17.04
2023-04-10T12:30:43.250Z,17.07
2023-04-10T12:31:43.226Z,16.92
2023-04-10T12:32:43.101Z,16.86
2023-04-10T12:33:43.059Z,16.74
2023-04-10T12:34:43.044Z,16.71
2023-04-10T12:35:43.094Z,16.70
2023-04-10T12:36:43.060Z,16.70
2023-04-10T12:37:43.018Z,16.68
2023-04-10T12:38:43.011Z,16.59
2023-04-10T12:39:43.016Z,16.63
2023-04-10T12:40:42.986Z,16.59
2023-04-10T12:41:43.015Z,16.62
2023-04-10T12:42:42.973Z,16.70
2023-04-10T12:43:42.957Z,16.73
2023-04-10T12:44:42.938Z,16.75
2023-04-10T12:45:42.932Z,16.74
2023-04-10T12:46:43.060Z,16.75
2023-04-10T12:47:42.987Z,16.83
2023-04-10T12:48:42.902Z,16.86
2023-04-10T12:49:42.887Z,16.75
2023-04-10T12:50:42.871Z,16.59
2023-04-10T12:51:42.883Z,16.42
2023-04-10T12:52:42.857Z,16.42
2023-04-10T12:53:42.844Z,16.40
2023-04-10T12:54:42.831Z,16.34
2023-04-10T12:55:42.821Z,16.34
2023-04-10T12:56:42.835Z,16.35
2023-04-10T12:57:42.798Z,16.38
2023-04-10T12:58:42.788Z,16.40
2023-04-10T12:59:42.790Z,16.50
2023-04-10T13:00:42.770Z,16.44
2023-04-10T13:01:42.863Z,16.44
2023-04-10T13:02:43.044Z,16.40
2023-04-10T13:03:42.885Z,16.45